Ashkum, Illinois
Current Conditions -  °F | °C
As of 6:55 PM on Thursday 30 Oct 2014 (Local Time) from KIKK Reporting Station
Broken Clouds Broken Clouds  
Wind Chill: 46°   Ceiling: 6000
Heat Index: 46°   Visibility: 10mi
Dew Point: 40°   Wind: 0mph
Humidity: 82%   Direction: NA
Pressure: 30.08"   Gusts: NA
Location:  40.88°N, 87.96°W
Report Text: KIKK 302355Z AUTO 00000KT 10SM BKN060 BKN110 08/05 A3008 RMK AO2 6//// T00750046
Loading
Personal Weather Stations






























Interactive Weather Map
Tropical Storm Tracking
New forecast layout! Learn more

10-Day Weather Forecast

Advertisements
Track Severe Weather on mobile